Time;durP1;ratioP1;P1;durP2;ratioP2;P2;SDS_P1;SDS_P2;PMS_P1;PMS_P2;Temp;Humidity;BMP_temperature;BMP_pressure;BME280_temperature;BME280_humidity;BME280_pressure;Samples;Min_cycle;Max_cycle;Signal;HPM_P1;HPM_P2
2023/06/23 00:00:20;;;;;;;3.53;2.25;;;;;;;19.20;69.69;101283.34;4918430;28;20055;-45
2023/06/23 00:03:08;;;;;;;3.95;2.90;;;;;;;19.21;69.81;101282.19;4904127;28;20129;-46
2023/06/23 00:05:55;;;;;;;2.50;2.20;;;;;;;19.22;69.27;101289.41;4918226;28;20059;-47
2023/06/23 00:08:42;;;;;;;2.80;2.35;;;;;;;19.21;69.47;101290.59;4918355;28;20106;-47
2023/06/23 00:11:29;;;;;;;2.15;1.95;;;;;;;19.20;69.24;101294.59;4918513;28;20056;-47
2023/06/23 00:14:50;;;;;;;4.57;2.33;;;;;;;19.19;69.14;101296.63;4918618;28;20066;-48
2023/06/23 00:17:40;;;;;;;2.78;2.40;;;;;;;19.20;68.65;101283.34;4918345;28;20845;-45
2023/06/23 00:20:27;;;;;;;2.85;2.33;;;;;;;19.18;68.82;101283.75;4923149;28;20059;-48
2023/06/23 00:23:15;;;;;;;3.22;2.58;;;;;;;19.19;68.33;101271.34;4921146;28;21704;-48
2023/06/23 00:26:04;;;;;;;2.88;2.33;;;;;;;19.19;68.24;101257.31;4922316;28;20066;-49
2023/06/23 00:28:51;;;;;;;4.90;2.20;;;;;;;19.22;68.08;101261.34;4921315;28;20055;-49
2023/06/23 00:31:39;;;;;;;2.47;1.95;;;;;;;19.19;68.35;101245.28;4922605;28;20051;-46
2023/06/23 00:34:26;;;;;;;2.30;1.95;;;;;;;19.18;67.94;101238.84;4922022;28;20047;-49
2023/06/23 00:37:13;;;;;;;6.05;2.00;;;;;;;19.20;67.80;101224.41;4920684;28;20113;-46
2023/06/23 00:40:00;;;;;;;2.03;1.92;;;;;;;19.20;68.02;101214.00;4919938;28;20555;-45
2023/06/23 00:42:52;;;;;;;3.60;2.10;;;;;;;19.23;68.04;101232.06;4920845;28;21758;-45
2023/06/23 00:45:40;;;;;;;5.93;2.10;;;;;;;19.22;67.97;101228.44;4919034;28;20726;-44
2023/06/23 00:48:27;;;;;;;2.17;1.98;;;;;;;19.22;67.57;101234.06;4921104;28;21462;-46
2023/06/23 00:51:15;;;;;;;3.28;1.90;;;;;;;19.25;67.38;101233.28;4918593;28;20074;-48
2023/06/23 00:54:04;;;;;;;3.53;2.13;;;;;;;19.26;67.27;101229.28;4918575;28;20146;-51
2023/06/23 00:56:51;;;;;;;2.92;2.30;;;;;;;19.26;67.40;101228.47;4917824;28;20691;-47
2023/06/23 00:59:38;;;;;;;6.85;2.38;;;;;;;19.25;67.12;101238.88;4920368;28;20067;-45
2023/06/23 01:02:27;;;;;;;3.50;2.17;;;;;;;19.24;67.26;101240.09;4919681;28;20086;-45
2023/06/23 01:05:21;;;;;;;4.50;2.00;;;;;;;19.20;67.09;101242.06;4905199;28;20435;-47
2023/06/23 01:08:31;;;;;;;4.90;2.20;;;;;;;19.20;67.13;101247.69;4917513;28;20751;-47
2023/06/23 01:11:23;;;;;;;2.45;2.20;;;;;;;19.17;66.91;101242.84;4920251;28;20055;-49
2023/06/23 01:14:39;;;;;;;3.15;1.70;;;;;;;19.12;66.63;101239.59;4920263;28;20678;-51
2023/06/23 01:17:49;;;;;;;2.05;1.90;;;;;;;19.10;66.75;101244.81;4947049;28;20058;-44
2023/06/23 01:20:40;;;;;;;3.08;1.90;;;;;;;19.10;66.69;101244.81;4954455;29;20494;-44
2023/06/23 01:23:50;;;;;;;2.38;2.17;;;;;;;19.08;66.76;101255.63;4946887;28;20496;-44
2023/06/23 01:26:54;;;;;;;1.95;1.75;;;;;;;19.10;66.45;101264.44;4929454;29;20097;-44
2023/06/23 01:29:44;;;;;;;2.63;2.10;;;;;;;19.10;66.49;101270.06;4949963;28;20051;-45
2023/06/23 01:32:38;;;;;;;3.53;2.10;;;;;;;19.07;66.48;101265.22;4952672;28;20055;-44
2023/06/23 01:35:28;;;;;;;3.20;1.90;;;;;;;19.07;66.71;101262.41;4937114;28;20051;-44
2023/06/23 01:38:30;;;;;;;4.97;2.33;;;;;;;19.09;66.49;101263.63;4948669;28;20442;-44
2023/06/23 01:41:21;;;;;;;2.20;2.00;;;;;;;19.10;66.72;101261.66;4945599;28;20515;-44
2023/06/23 01:44:14;;;;;;;2.17;1.73;;;;;;;19.06;66.89;101256.00;4951973;28;20039;-45
2023/06/23 01:47:08;;;;;;;3.30;1.70;;;;;;;19.03;67.08;101247.56;4949662;28;20308;-46
2023/06/23 01:50:01;;;;;;;4.35;2.00;;;;;;;18.99;67.40;101258.75;4953666;28;20110;-44
2023/06/23 01:52:51;;;;;;;2.33;2.05;;;;;;;18.97;67.56;101249.13;4948336;28;20114;-44
2023/06/23 01:55:39;;;;;;;3.53;2.10;;;;;;;18.92;67.91;101252.28;4943265;28;20055;-44
2023/06/23 01:58:28;;;;;;;3.10;2.20;;;;;;;18.90;67.74;101246.28;4943587;28;20514;-44
2023/06/23 02:01:17;;;;;;;3.63;2.17;;;;;;;18.88;67.91;101245.88;4948517;29;20059;-46
2023/06/23 02:04:06;;;;;;;2.25;2.05;;;;;;;18.83;67.90;101239.41;4940789;29;20051;-44
2023/06/23 02:06:55;;;;;;;4.40;1.98;;;;;;;18.78;68.08;101234.16;4941088;28;20069;-44
2023/06/23 02:09:43;;;;;;;2.42;2.22;;;;;;;18.77;67.95;101234.56;4953741;29;20129;-44
2023/06/23 02:12:32;;;;;;;2.63;2.13;;;;;;;18.74;68.07;101227.69;4953933;29;20059;-44
2023/06/23 02:15:22;;;;;;;3.47;2.65;;;;;;;18.73;67.92;101230.91;4951660;28;20051;-44
2023/06/23 02:18:10;;;;;;;6.45;2.70;;;;;;;18.71;67.99;101224.88;4952918;29;20130;-45
2023/06/23 02:20:58;;;;;;;3.88;2.63;;;;;;;18.72;67.95;101227.28;4952905;29;20055;-45
2023/06/23 02:23:46;;;;;;;5.47;2.38;;;;;;;18.69;68.21;101230.88;4953417;29;20062;-44
2023/06/23 02:26:37;;;;;;;3.00;2.55;;;;;;;18.68;68.15;101229.28;4953271;28;20051;-44
2023/06/23 02:29:24;;;;;;;3.97;2.88;;;;;;;18.66;68.51;101222.44;4950393;28;20090;-44
2023/06/23 02:32:16;;;;;;;3.13;2.40;;;;;;;18.64;68.40;101224.81;4947183;28;20434;-44
2023/06/23 02:35:07;;;;;;;2.97;2.67;;;;;;;18.62;68.53;101211.19;4946092;28;20059;-45
2023/06/23 02:38:00;;;;;;;4.13;2.67;;;;;;;18.63;68.74;101218.44;4952719;28;20043;-46
2023/06/23 02:40:49;;;;;;;4.50;2.30;;;;;;;18.60;68.96;101210.78;4949524;28;20413;-44
2023/06/23 02:43:47;;;;;;;5.88;3.03;;;;;;;18.59;69.04;101199.94;4948634;28;20051;-44
2023/06/23 02:46:38;;;;;;;2.95;2.67;;;;;;;18.61;68.96;101201.16;4950074;28;20079;-44
2023/06/23 02:49:28;;;;;;;4.93;2.65;;;;;;;18.60;69.17;101196.75;4943511;28;20062;-44
2023/06/23 02:52:18;;;;;;;4.38;2.85;;;;;;;18.59;69.27;101200.75;4938098;29;20055;-44
2023/06/23 02:55:07;;;;;;;4.25;2.63;;;;;;;18.60;69.18;101202.38;4948974;28;20058;-44
2023/06/23 02:57:56;;;;;;;5.90;2.60;;;;;;;18.60;69.16;101196.75;4951384;28;20159;-44
2023/06/23 03:00:44;;;;;;;3.95;2.53;;;;;;;18.61;69.26;101208.78;4986986;23;20026;-45
2023/06/23 03:03:39;;;;;;;4.65;2.20;;;;;;;18.59;69.24;101200.75;5106637;27;20400;-44
2023/06/23 03:06:26;;;;;;;2.65;2.45;;;;;;;18.60;69.11;101190.34;5086502;28;20051;-45
2023/06/23 03:09:13;;;;;;;3.13;2.20;;;;;;;18.61;68.87;101189.16;5078397;28;20047;-45
2023/06/23 03:12:00;;;;;;;3.20;2.35;;;;;;;18.62;69.06;101199.97;5089101;28;20088;-45
2023/06/23 03:14:48;;;;;;;3.35;2.53;;;;;;;18.62;68.91;101204.78;5085022;28;20162;-46
2023/06/23 03:17:39;;;;;;;2.58;2.08;;;;;;;18.62;69.02;101201.97;5085112;28;20060;-44
2023/06/23 03:20:32;;;;;;;4.13;2.58;;;;;;;18.62;69.09;101187.94;5086333;28;20043;-45
2023/06/23 03:23:22;;;;;;;4.55;2.70;;;;;;;18.56;69.04;101170.66;5084173;28;20045;-46
2023/06/23 03:26:11;;;;;;;3.15;2.60;;;;;;;18.53;69.60;101176.28;5086523;28;20048;-45
2023/06/23 03:29:03;;;;;;;3.50;2.10;;;;;;;18.52;69.80;101178.28;5084477;28;20186;-45
2023/06/23 03:31:55;;;;;;;3.95;2.53;;;;;;;18.51;69.61;101181.44;5077430;28;20056;-45
2023/06/23 03:34:47;;;;;;;;;;;;;;;18.45;69.92;101177.38;5081244;28;20075;-46
2023/06/23 03:37:52;;;;;;;7.13;2.85;;;;;;;18.40;69.91;101186.16;5083124;28;19955;-44
2023/06/23 03:40:47;;;;;;;5.65;3.28;;;;;;;18.36;70.25;101186.09;5090822;28;20177;-45
2023/06/23 03:43:39;;;;;;;3.72;2.88;;;;;;;18.33;70.60;101183.25;5090926;28;20117;-45
2023/06/23 03:46:28;;;;;;;;;;;;;;;18.27;70.65;101189.22;5085643;28;20421;-45
2023/06/23 03:49:20;;;;;;;6.32;3.55;;;;;;;18.25;70.88;101196.41;5073841;28;19969;-45
2023/06/23 03:52:10;;;;;;;5.30;4.18;;;;;;;18.20;71.47;101188.38;5083339;28;20048;-45
2023/06/23 03:54:59;;;;;;;5.53;3.65;;;;;;;18.17;72.07;101189.13;5085304;28;20153;-46
2023/06/23 03:57:48;;;;;;;6.68;3.30;;;;;;;18.21;72.58;101195.59;5084982;28;20079;-45
2023/06/23 04:00:38;;;;;;;6.68;3.35;;;;;;;18.22;72.77;101202.78;5073968;28;20414;-45
2023/06/23 04:03:28;;;;;;;10.10;4.75;;;;;;;18.23;73.08;101207.22;5083416;28;20133;-44
2023/06/23 04:06:17;;;;;;;6.25;3.88;;;;;;;18.18;73.62;101210.38;5086463;28;20524;-44
2023/06/23 04:09:05;;;;;;;5.25;3.80;;;;;;;18.16;73.93;101205.13;5086214;28;20481;-46
2023/06/23 04:11:53;;;;;;;8.07;4.25;;;;;;;18.18;74.25;101224.38;5083629;28;20047;-44
2023/06/23 04:14:44;;;;;;;7.10;4.72;;;;;;;18.19;74.61;101217.56;5067434;28;20127;-47
2023/06/23 04:17:33;;;;;;;6.80;4.00;;;;;;;18.16;75.13;101215.56;5071371;28;20045;-46
2023/06/23 04:20:23;;;;;;;6.85;3.83;;;;;;;18.15;75.40;101208.34;5074809;28;20048;-46
2023/06/23 04:23:12;;;;;;;7.80;3.60;;;;;;;18.12;75.77;101209.09;5070996;28;20137;-44
2023/06/23 04:26:01;;;;;;;4.35;3.88;;;;;;;18.11;76.21;101201.88;5071354;28;20601;-45
2023/06/23 04:28:52;;;;;;;7.05;4.05;;;;;;;18.10;76.53;101222.69;5071876;28;20126;-45
2023/06/23 04:31:40;;;;;;;5.95;3.75;;;;;;;18.07;76.45;101215.88;5075284;28;20052;-44
2023/06/23 04:34:28;;;;;;;5.38;4.15;;;;;;;18.08;76.75;101213.88;5056594;28;20123;-45
2023/06/23 04:37:23;;;;;;;7.38;4.07;;;;;;;18.08;77.11;101211.06;5070054;28;20102;-45
2023/06/23 04:40:13;;;;;;;5.20;3.85;;;;;;;18.06;77.56;101210.63;5071177;28;20080;-45
2023/06/23 04:43:15;;;;;;;7.45;5.10;;;;;;;18.05;77.49;101200.63;5072789;28;20091;-45
2023/06/23 04:46:02;;;;;;;8.88;4.30;;;;;;;18.03;77.66;101200.22;5075146;28;20044;-45
2023/06/23 04:48:53;;;;;;;4.70;3.92;;;;;;;18.01;78.07;101202.56;5070029;28;20086;-44
2023/06/23 04:51:46;;;;;;;7.30;4.93;;;;;;;17.99;78.12;101210.56;5069446;28;20044;-48
2023/06/23 04:54:40;;;;;;;5.65;3.38;;;;;;;18.01;78.03;101200.59;5071184;28;20496;-47
2023/06/23 04:57:31;;;;;;;4.13;3.22;;;;;;;17.99;78.01;101197.38;5056346;28;20063;-45
2023/06/23 05:00:22;;;;;;;4.60;3.08;;;;;;;17.98;77.74;101198.53;5072688;28;20057;-45
2023/06/23 05:03:10;;;;;;;5.50;3.03;;;;;;;17.99;77.70;101199.34;5071001;28;20067;-44
2023/06/23 05:06:00;;;;;;;3.88;2.35;;;;;;;17.99;77.75;101197.38;5061242;28;20049;-48
2023/06/23 05:08:49;;;;;;;4.13;2.67;;;;;;;18.02;77.89;101207.81;5058838;28;20534;-47
2023/06/23 05:11:40;;;;;;;3.13;2.75;;;;;;;18.03;77.71;101208.63;5058154;28;20532;-44
2023/06/23 05:14:28;;;;;;;6.88;3.22;;;;;;;18.01;77.67;101206.19;5070402;28;20048;-47
2023/06/23 05:17:18;;;;;;;6.88;2.65;;;;;;;18.02;77.60;101201.41;5071816;28;20127;-45
2023/06/23 05:20:09;;;;;;;6.63;2.58;;;;;;;17.97;77.61;101196.94;5072268;28;20055;-46
2023/06/23 05:22:58;;;;;;;3.10;2.13;;;;;;;17.96;77.65;101195.34;5070999;28;20040;-44
2023/06/23 05:25:48;;;;;;;2.55;2.08;;;;;;;17.95;77.53;101192.94;5068869;28;20045;-45
2023/06/23 05:28:38;;;;;;;4.75;1.92;;;;;;;17.94;77.68;101185.69;5071991;28;20048;-45
2023/06/23 05:31:27;;;;;;;5.40;2.00;;;;;;;17.93;77.78;101187.69;5071200;28;20049;-44
2023/06/23 05:34:17;;;;;;;3.78;1.77;;;;;;;17.93;77.53;101184.06;5069282;28;20105;-45
2023/06/23 05:37:05;;;;;;;2.78;2.05;;;;;;;17.95;77.45;101192.94;5070248;28;20060;-46
2023/06/23 05:39:54;;;;;;;3.13;2.08;;;;;;;17.96;77.90;101188.91;5070241;28;20049;-44
2023/06/23 05:42:42;;;;;;;3.53;2.17;;;;;;;17.94;77.79;101186.50;5071667;28;20411;-44
2023/06/23 05:45:29;;;;;;;3.83;2.28;;;;;;;17.94;77.78;101189.31;5070818;28;20410;-45
2023/06/23 05:48:40;;;;;;;5.18;2.55;;;;;;;17.97;78.06;101187.75;5068629;28;20055;-46
2023/06/23 05:51:30;;;;;;;3.72;2.08;;;;;;;17.98;77.97;101183.72;5050169;28;20079;-44
2023/06/23 05:54:21;;;;;;;2.40;2.20;;;;;;;17.99;78.19;101180.56;5070676;28;20052;-45
2023/06/23 05:57:16;;;;;;;3.28;1.98;;;;;;;17.99;78.43;101179.75;5069595;28;20139;-46
2023/06/23 06:00:13;;;;;;;2.10;1.90;;;;;;;17.97;78.45;101176.53;5071364;28;20043;-44
2023/06/23 06:03:06;;;;;;;2.70;2.28;;;;;;;17.96;78.68;101177.72;5063712;28;20105;-44
2023/06/23 06:05:55;;;;;;;4.32;2.35;;;;;;;17.98;78.82;101172.53;5070876;28;20045;-45
2023/06/23 06:08:44;;;;;;;6.15;2.92;;;;;;;18.01;79.11;101188.56;5067134;28;20709;-45
2023/06/23 06:11:32;;;;;;;6.00;4.07;;;;;;;17.98;79.67;101187.34;5069188;28;20049;-45
2023/06/23 06:14:22;;;;;;;9.80;4.05;;;;;;;17.93;80.14;101173.69;5067451;28;20057;-46
2023/06/23 06:17:11;;;;;;;8.70;5.10;;;;;;;17.86;80.82;101170.00;5071192;28;20143;-46
2023/06/23 06:20:01;;;;;;;12.55;4.78;;;;;;;17.80;81.35;101177.13;5070225;28;20511;-45
2023/06/23 06:22:50;;;;;;;7.85;4.50;;;;;;;17.75;81.89;101177.47;5069484;28;20052;-44
2023/06/23 06:25:45;;;;;;;9.70;5.38;;;;;;;17.72;82.45;101172.66;5070252;28;20052;-44
2023/06/23 06:28:34;;;;;;;11.38;5.20;;;;;;;17.68;82.76;101160.63;5070450;28;20078;-44
2023/06/23 06:31:23;;;;;;;9.40;5.28;;;;;;;17.68;83.13;101171.81;5065527;28;20045;-45
2023/06/23 06:34:14;;;;;;;11.60;5.55;;;;;;;17.70;83.30;101169.44;5069625;28;20051;-45
2023/06/23 06:37:01;;;;;;;11.55;5.30;;;;;;;17.70;83.66;101163.81;5067892;28;20139;-45
2023/06/23 06:39:51;;;;;;;11.63;5.95;;;;;;;17.71;84.17;101159.84;5061768;28;20056;-43
2023/06/23 06:42:38;;;;;;;9.63;4.75;;;;;;;17.74;84.29;101159.09;5062315;28;20048;-44
2023/06/23 06:45:26;;;;;;;9.40;5.82;;;;;;;17.77;84.63;101159.09;5052014;28;20036;-46
2023/06/23 06:48:14;;;;;;;7.28;4.88;;;;;;;17.84;84.73;101173.19;5080395;28;20078;-43
2023/06/23 06:51:03;;;;;;;8.95;4.88;;;;;;;17.88;84.99;101170.41;5060330;28;20143;-44
2023/06/23 06:53:51;;;;;;;10.05;5.82;;;;;;;17.94;85.42;101177.28;5069868;28;20045;-43
2023/06/23 06:56:39;;;;;;;13.50;5.13;;;;;;;18.01;85.44;101175.38;5068806;28;20094;-46
2023/06/23 06:59:26;;;;;;;11.45;4.80;;;;;;;18.07;85.52;101167.41;5072286;28;20052;-43
2023/06/23 07:02:13;;;;;;;4.97;3.45;;;;;;;18.11;85.71;101171.84;5068215;28;20074;-44
2023/06/23 07:05:02;;;;;;;6.40;4.32;;;;;;;18.14;85.46;101167.47;5050118;28;20885;-48
2023/06/23 07:07:49;;;;;;;10.25;4.40;;;;;;;18.23;85.54;101160.38;5034423;28;20053;-45
2023/06/23 07:10:36;;;;;;;12.98;5.47;;;;;;;18.32;85.80;101168.44;5041169;28;20398;-43
2023/06/23 07:13:23;;;;;;;9.93;4.82;;;;;;;18.41;85.48;101160.50;5055401;28;20056;-44
2023/06/23 07:16:10;;;;;;;9.18;4.78;;;;;;;18.47;85.70;101164.59;5070021;28;20391;-45
2023/06/23 07:18:57;;;;;;;11.65;4.70;;;;;;;18.52;86.09;101164.25;5064537;28;20048;-43
2023/06/23 07:21:44;;;;;;;11.55;4.30;;;;;;;18.56;86.24;101162.25;5068384;28;20060;-43
2023/06/23 07:24:32;;;;;;;5.30;3.88;;;;;;;18.61;86.10;101170.31;5068784;28;20045;-44
2023/06/23 07:27:19;;;;;;;5.28;3.97;;;;;;;18.63;85.94;101162.34;5068185;28;20046;-48
2023/06/23 07:30:06;;;;;;;6.63;3.38;;;;;;;18.63;86.31;101165.13;5018822;28;20044;-46
2023/06/23 07:32:54;;;;;;;5.85;4.13;;;;;;;18.66;86.29;101172.78;5053129;28;20044;-47
2023/06/23 07:35:41;;;;;;;5.18;3.95;;;;;;;18.67;86.18;101167.94;5067907;28;21653;-45
2023/06/23 07:38:28;;;;;;;4.68;2.53;;;;;;;18.64;85.83;101175.13;5068448;28;20090;-45
2023/06/23 07:41:15;;;;;;;2.60;2.40;;;;;;;18.57;85.38;101163.06;5069165;28;20080;-44
2023/06/23 07:44:03;;;;;;;2.47;1.85;;;;;;;18.51;85.11;101181.44;5069640;28;20049;-44
2023/06/23 07:46:50;;;;;;;3.58;1.73;;;;;;;18.49;84.32;101175.44;5068344;28;20058;-45
2023/06/23 07:49:37;;;;;;;4.72;1.77;;;;;;;18.51;84.33;101165.44;5055552;28;20075;-45
2023/06/23 07:52:24;;;;;;;2.55;1.30;;;;;;;18.59;83.79;101171.88;5073614;28;20060;-45
2023/06/23 07:55:19;;;;;;;3.55;2.55;;;;;;;18.65;83.75;101170.34;5072215;28;20036;-45
2023/06/23 07:58:06;;;;;;;2.78;1.92;;;;;;;18.68;83.08;101161.16;5073597;28;20048;-47
2023/06/23 08:00:53;;;;;;;3.25;1.92;;;;;;;18.71;82.83;101161.19;5072833;28;20736;-48
2023/06/23 08:03:45;;;;;;;5.88;1.90;;;;;;;18.77;82.84;101154.00;5059691;28;20395;-45
2023/06/23 08:06:32;;;;;;;2.53;1.60;;;;;;;18.81;82.38;101156.84;5072720;28;20041;-46
2023/06/23 08:09:19;;;;;;;2.55;1.38;;;;;;;18.83;82.11;101160.84;5066124;28;20098;-47
2023/06/23 08:12:07;;;;;;;2.33;1.48;;;;;;;18.81;81.65;101160.44;5058843;28;20048;-49
2023/06/23 08:14:54;;;;;;;3.08;1.10;;;;;;;18.83;81.67;101158.06;5069277;28;20041;-46
2023/06/23 08:17:41;;;;;;;1.90;1.20;;;;;;;18.83;81.43;101158.06;5072111;28;20391;-47
2023/06/23 08:20:29;;;;;;;4.10;1.30;;;;;;;18.84;81.24;101165.28;5051826;28;20063;-52
2023/06/23 08:23:16;;;;;;;2.10;1.30;;;;;;;18.89;80.92;101160.47;5049932;28;20048;-46
2023/06/23 08:26:03;;;;;;;3.30;1.30;;;;;;;18.92;80.84;101154.09;5058711;28;20593;-45
2023/06/23 08:28:50;;;;;;;3.60;1.40;;;;;;;18.94;81.06;101154.50;5048554;28;20055;-48
2023/06/23 08:31:37;;;;;;;3.42;1.27;;;;;;;18.92;80.53;101162.50;5068842;28;20518;-47
2023/06/23 08:34:25;;;;;;;3.65;1.58;;;;;;;18.95;80.36;101161.72;5067435;28;20041;-47
2023/06/23 08:37:12;;;;;;;2.55;1.58;;;;;;;18.97;80.07;101148.09;5070073;28;20056;-47
2023/06/23 08:39:59;;;;;;;4.60;1.50;;;;;;;19.00;79.74;101147.31;5043809;28;20084;-46
2023/06/23 08:42:46;;;;;;;1.95;1.20;;;;;;;19.02;79.68;101144.91;5056893;28;20053;-46
2023/06/23 08:45:35;;;;;;;1.83;1.10;;;;;;;19.07;78.95;101139.75;5062618;28;20059;-46
2023/06/23 08:48:25;;;;;;;3.05;1.17;;;;;;;19.15;78.25;101146.19;5046068;28;20076;-44
2023/06/23 08:51:14;;;;;;;4.07;1.42;;;;;;;19.18;78.27;101149.03;5056663;28;20049;-46
2023/06/23 08:54:01;;;;;;;2.33;1.63;;;;;;;19.28;78.54;101145.47;5057584;28;20075;-45
2023/06/23 08:56:49;;;;;;;3.35;1.30;;;;;;;19.37;78.32;101140.31;5057793;28;20044;-47
2023/06/23 08:59:36;;;;;;;6.15;1.67;;;;;;;19.40;78.08;101149.97;5055912;28;20209;-45
2023/06/23 09:02:23;;;;;;;2.58;1.80;;;;;;;19.38;78.25;101141.91;5068826;28;20080;-45
2023/06/23 09:05:10;;;;;;;2.47;1.80;;;;;;;19.41;78.06;101148.75;5058367;28;20045;-45
2023/06/23 09:07:58;;;;;;;2.22;1.70;;;;;;;19.41;78.05;101135.50;5062701;28;20063;-46
2023/06/23 09:10:45;;;;;;;3.50;1.50;;;;;;;19.42;78.06;101139.13;5062899;28;20455;-47
2023/06/23 09:13:36;;;;;;;4.97;1.63;;;;;;;19.43;78.39;101135.91;5062843;28;20067;-45
2023/06/23 09:16:24;;;;;;;4.55;2.17;;;;;;;19.42;78.39;101136.31;5061335;28;20048;-47
2023/06/23 09:19:11;;;;;;;5.18;2.05;;;;;;;19.43;78.16;101140.75;5058922;28;20123;-46
2023/06/23 09:21:59;;;;;;;3.63;2.00;;;;;;;19.43;78.36;101147.16;5059126;28;20565;-45
2023/06/23 09:24:49;;;;;;;6.38;2.35;;;;;;;19.42;78.10;101145.56;5056439;28;20059;-45
2023/06/23 09:27:42;;;;;;;6.25;2.10;;;;;;;19.45;78.17;101149.56;5052547;28;20495;-50
2023/06/23 09:30:33;;;;;;;6.70;2.13;;;;;;;19.48;78.02;101140.38;5031241;28;20055;-47
2023/06/23 09:33:21;;;;;;;;;;;;;;;19.51;78.08;101139.56;5031103;28;20117;-49
2023/06/23 09:36:08;;;;;;;4.68;2.78;;;;;;;19.56;77.95;101142.00;5029080;28;19928;-49
2023/06/23 09:38:57;;;;;;;7.22;3.83;;;;;;;19.57;78.06;101143.59;5016196;28;20045;-47
2023/06/23 09:41:55;;;;;;;3.15;2.05;;;;;;;19.66;78.24;101144.03;5028459;28;20048;-47
2023/06/23 09:44:48;;;;;;;3.30;1.75;;;;;;;19.84;77.94;101136.44;5030602;28;20514;-50
2023/06/23 09:47:37;;;;;;;3.60;1.85;;;;;;;20.21;77.56;101127.63;5027326;28;20048;-49
2023/06/23 09:50:27;;;;;;;3.55;1.80;;;;;;;20.67;76.91;101138.91;5027121;28;20123;-48
2023/06/23 09:53:20;;;;;;;3.90;1.60;;;;;;;21.10;76.23;101145.25;5029792;28;20672;-49
2023/06/23 09:56:13;;;;;;;5.18;1.63;;;;;;;21.55;75.70;101138.59;5028300;28;20044;-48
2023/06/23 09:59:02;;;;;;;3.35;1.70;;;;;;;21.82;74.76;101147.31;5030379;28;20060;-49
2023/06/23 10:01:49;;;;;;;4.57;1.55;;;;;;;21.68;74.14;101141.78;5030621;28;20116;-49
2023/06/23 10:04:36;;;;;;;29.27;3.28;;;;;;;21.53;74.65;101137.41;5028325;28;20092;-50
2023/06/23 10:07:25;;;;;;;2.78;1.70;;;;;;;21.43;74.70;101147.53;5027811;28;20056;-48
2023/06/23 10:10:14;;;;;;;2.40;1.65;;;;;;;21.38;74.72;101149.97;5037267;28;20131;-45
2023/06/23 10:13:10;;;;;;;2.90;1.65;;;;;;;21.34;74.90;101149.19;5066041;28;20154;-45
2023/06/23 10:15:59;;;;;;;3.35;1.38;;;;;;;21.21;74.32;101155.25;5070202;28;20056;-45
2023/06/23 10:18:46;;;;;;;2.95;1.27;;;;;;;21.06;74.38;101148.06;5058128;28;20052;-45
2023/06/23 10:21:35;;;;;;;5.15;1.10;;;;;;;20.92;74.66;101142.44;5058613;28;21419;-48
2023/06/23 10:24:22;;;;;;;2.15;1.15;;;;;;;20.85;74.48;101142.47;5062800;28;20561;-45
2023/06/23 10:27:10;;;;;;;3.78;1.65;;;;;;;20.81;74.76;101135.25;5069615;28;20129;-46
2023/06/23 10:29:58;;;;;;;4.20;1.40;;;;;;;20.81;74.84;101133.22;5056499;28;20040;-45
2023/06/23 10:32:55;;;;;;;7.63;1.45;;;;;;;20.99;75.08;101139.63;5070349;28;20501;-45
2023/06/23 10:35:48;;;;;;;2.10;1.00;;;;;;;21.15;74.61;101145.63;5069150;28;20517;-46
2023/06/23 10:38:40;;;;;;;2.58;0.98;;;;;;;21.20;74.59;101142.41;5077243;28;20147;-45
2023/06/23 10:41:27;;;;;;;1.80;0.90;;;;;;;21.24;74.02;101143.19;5071078;28;20057;-45
2023/06/23 10:44:16;;;;;;;4.20;0.98;;;;;;;21.33;74.40;101141.94;5069683;28;20079;-45
2023/06/23 10:47:03;;;;;;;2.97;0.80;;;;;;;21.48;73.85;101133.03;5068884;28;20044;-49
2023/06/23 10:49:51;;;;;;;2.00;0.70;;;;;;;21.66;74.00;101144.19;5055708;28;20186;-45
2023/06/23 10:52:38;;;;;;;1.80;0.80;;;;;;;21.74;73.75;101135.28;5060408;28;20384;-47
2023/06/23 10:55:36;;;;;;;0.82;0.52;;;;;;;21.78;73.54;101129.63;5069198;28;20053;-45
2023/06/23 10:58:24;;;;;;;2.85;0.65;;;;;;;21.86;73.28;101125.59;5055785;28;20055;-44
2023/06/23 11:01:11;;;;;;;1.63;0.40;;;;;;;21.98;72.88;101132.75;5069553;28;20045;-46
2023/06/23 11:04:01;;;;;;;0.73;0.50;;;;;;;21.89;72.94;101136.03;5037376;28;20053;-46
2023/06/23 11:07:02;;;;;;;0.68;0.47;;;;;;;21.77;73.17;101133.66;5048553;28;20045;-45
2023/06/23 11:10:02;;;;;;;1.83;0.45;;;;;;;21.67;73.30;101126.88;5043430;28;20059;-45
2023/06/23 11:12:50;;;;;;;1.52;0.65;;;;;;;21.60;73.43;101114.84;5012849;28;20053;-47
2023/06/23 11:15:37;;;;;;;0.70;0.68;;;;;;;21.52;73.37;101122.56;5047085;28;20396;-45
2023/06/23 11:18:26;;;;;;;4.28;0.65;;;;;;;21.36;73.34;101124.22;5036665;28;20053;-52
2023/06/23 11:21:16;;;;;;;1.27;0.45;;;;;;;21.17;73.52;101128.34;5047267;28;20088;-45
2023/06/23 11:24:15;;;;;;;0.70;0.70;;;;;;;21.13;73.84;101133.16;5051300;28;20123;-45
2023/06/23 11:27:03;;;;;;;3.35;1.15;;;;;;;21.05;74.13;101126.72;5053835;28;20136;-46
2023/06/23 11:30:16;;;;;;;5.35;0.80;;;;;;;20.91;74.13;101126.78;5054453;28;20049;-45
2023/06/23 11:33:28;;;;;;;0.68;0.68;;;;;;;20.85;74.59;101136.84;5053089;28;20037;-45
2023/06/23 11:36:17;;;;;;;1.02;0.30;;;;;;;20.80;74.53;101131.63;5051853;28;20044;-45
2023/06/23 11:39:07;;;;;;;1.85;0.90;;;;;;;20.76;74.71;101136.44;5052760;28;20045;-45
2023/06/23 11:41:56;;;;;;;2.75;0.75;;;;;;;20.73;75.15;101123.19;5053292;28;20092;-46
2023/06/23 11:44:43;;;;;;;1.27;0.50;;;;;;;20.72;75.80;101134.84;5051039;28;20056;-45
2023/06/23 11:47:30;;;;;;;6.28;1.08;;;;;;;20.80;75.50;101131.63;5053086;28;20072;-45
2023/06/23 11:50:20;;;;;;;0.75;0.40;;;;;;;20.86;75.86;101130.03;5051849;28;20124;-45
2023/06/23 11:53:08;;;;;;;0.60;0.40;;;;;;;20.98;75.91;101126.75;5052122;28;20507;-48
2023/06/23 11:55:56;;;;;;;0.90;0.40;;;;;;;21.07;75.58;101127.19;5042796;28;20059;-45
2023/06/23 11:58:51;;;;;;;2.15;0.60;;;;;;;21.09;75.43;101132.38;5052749;28;20041;-45
2023/06/23 12:01:39;;;;;;;3.25;0.60;;;;;;;21.09;75.44;101133.19;5053898;28;20125;-45
2023/06/23 12:04:26;;;;;;;0.90;0.52;;;;;;;21.08;75.35;101123.13;5070171;28;20109;-46
2023/06/23 12:07:13;;;;;;;1.80;0.50;;;;;;;21.10;75.76;101140.41;5063113;28;20055;-45
2023/06/23 12:10:02;;;;;;;2.47;0.80;;;;;;;21.11;75.86;101133.59;5070892;28;20065;-45
2023/06/23 12:12:52;;;;;;;0.88;0.40;;;;;;;21.18;76.11;101130.72;5071120;28;20045;-46
2023/06/23 12:15:40;;;;;;;1.65;0.90;;;;;;;21.33;75.71;101133.50;5058859;28;20044;-46
2023/06/23 12:18:27;;;;;;;1.80;0.40;;;;;;;21.47;75.70;101120.13;5071027;28;20067;-47
2023/06/23 12:21:16;;;;;;;0.77;0.75;;;;;;;21.62;75.49;101126.50;5069722;28;20123;-45
2023/06/23 12:24:04;;;;;;;0.93;0.25;;;;;;;21.80;75.23;101135.66;5071355;28;20103;-45
2023/06/23 12:26:51;;;;;;;0.73;0.38;;;;;;;21.93;74.80;101122.72;5069778;28;20052;-45
2023/06/23 12:29:39;;;;;;;1.08;0.50;;;;;;;22.01;74.79;101126.28;5058833;28;20048;-46
2023/06/23 12:32:07;;;;;;;13.10;1.50;;;;;;;22.10;74.82;101133.06;5072947;28;20047;-48
2023/06/23 12:34:45;;;;;;;1.00;0.70;;;;;;;22.17;74.92;101127.38;5053903;28;20068;-45
2023/06/23 12:37:16;;;;;;;2.55;0.70;;;;;;;22.27;74.81;101134.13;5083945;28;20048;-44
2023/06/23 12:39:51;;;;;;;7.38;1.27;;;;;;;22.32;74.44;101139.31;5073273;28;20054;-46
2023/06/23 12:42:19;;;;;;;4.97;1.35;;;;;;;22.27;74.38;101134.13;5071400;28;20563;-47
2023/06/23 12:44:48;;;;;;;6.85;2.03;;;;;;;22.16;74.65;101134.22;5072940;28;20044;-45
2023/06/23 12:47:19;;;;;;;2.55;1.17;;;;;;;22.06;75.17;101131.47;5073099;28;20040;-46
2023/06/23 12:49:47;;;;;;;2.80;1.13;;;;;;;21.98;75.54;101122.28;5073546;28;20063;-46
2023/06/23 12:52:15;;;;;;;1.77;0.90;;;;;;;21.98;75.73;101127.91;5070493;28;20106;-45
2023/06/23 12:54:43;;;;;;;4.30;1.05;;;;;;;21.99;75.81;101128.72;5073204;28;20061;-46
2023/06/23 12:57:12;;;;;;;1.50;0.70;;;;;;;21.93;75.84;101133.19;5060317;28;20064;-45
2023/06/23 12:59:39;;;;;;;2.65;1.13;;;;;;;21.89;75.92;101136.03;5072926;28;20052;-46
2023/06/23 13:02:06;;;;;;;2.97;1.20;;;;;;;21.85;76.22;101138.84;5068977;28;20135;-45
2023/06/23 13:04:33;;;;;;;3.40;1.10;;;;;;;21.79;76.17;101134.03;5067426;28;20136;-45